createdAt,value
2018-08-11T00:02:07.587Z,100589.39
2018-08-11T00:04:36.087Z,100588.55
2018-08-11T00:07:04.692Z,100584.70
2018-08-11T00:09:33.151Z,100578.63
2018-08-11T00:12:01.680Z,100571.42
2018-08-11T00:14:30.181Z,100576.01
2018-08-11T00:16:58.675Z,100573.97
2018-08-11T00:19:27.117Z,100577.58
2018-08-11T00:21:55.573Z,100572.44
2018-08-11T00:24:24.069Z,100572.13
2018-08-11T00:26:52.513Z,100564.71
2018-08-11T00:29:20.943Z,100566.92
2018-08-11T00:31:49.441Z,100561.44
2018-08-11T00:34:17.877Z,100565.96
2018-08-11T00:36:46.353Z,100558.56
2018-08-11T00:39:14.836Z,100559.13
2018-08-11T00:41:43.297Z,100558.59
2018-08-11T00:44:11.786Z,100572.83
2018-08-11T00:46:40.389Z,100558.37
2018-08-11T00:49:08.882Z,100557.83
2018-08-11T00:51:37.314Z,100561.88
2018-08-11T00:54:05.858Z,100563.83
2018-08-11T00:56:34.377Z,100560.18
2018-08-11T00:59:02.836Z,100571.22
2018-08-11T01:01:31.249Z,100572.91
2018-08-11T01:03:59.742Z,100569.88
2018-08-11T01:06:28.151Z,100565.20
2018-08-11T01:08:56.614Z,100559.23
2018-08-11T01:11:25.084Z,100561.66
2018-08-11T01:13:53.669Z,100568.80
2018-08-11T01:16:22.073Z,100560.59
2018-08-11T01:18:50.588Z,100566.64
2018-08-11T01:21:19.023Z,100575.15
2018-08-11T01:23:47.487Z,100572.44
2018-08-11T01:26:15.933Z,100566.08
2018-08-11T01:28:44.381Z,100580.10
2018-08-11T01:31:12.826Z,100568.51
2018-08-11T01:33:41.288Z,100567.88
2018-08-11T01:36:09.761Z,100573.88
2018-08-11T01:38:38.262Z,100572.74
2018-08-11T01:41:06.765Z,100575.72
2018-08-11T01:43:35.225Z,100583.41
2018-08-11T01:46:03.725Z,100591.00
2018-08-11T01:48:32.118Z,100586.08
2018-08-11T01:51:00.667Z,100584.09
2018-08-11T01:53:29.077Z,100584.08
2018-08-11T01:55:57.572Z,100581.81
2018-08-11T01:58:25.985Z,100589.38
2018-08-11T02:00:54.410Z,100591.50
2018-08-11T02:03:22.842Z,100598.09
2018-08-11T02:05:51.357Z,100602.11
2018-08-11T02:08:19.825Z,100606.33
2018-08-11T02:10:48.353Z,100620.16
2018-08-11T02:13:16.754Z,100627.17
2018-08-11T02:15:45.184Z,100627.59
2018-08-11T02:18:13.582Z,100624.62
2018-08-11T02:20:42.050Z,100623.03
2018-08-11T02:23:10.517Z,100635.70
2018-08-11T02:25:38.974Z,100637.64
2018-08-11T02:28:07.418Z,100634.66
2018-08-11T02:30:35.901Z,100634.36
2018-08-11T02:33:04.333Z,100642.05
2018-08-11T02:35:32.785Z,100631.65
2018-08-11T02:38:01.279Z,100630.28
2018-08-11T02:40:29.779Z,100621.54
2018-08-11T02:42:58.265Z,100621.27
2018-08-11T02:45:26.778Z,100622.63
2018-08-11T02:47:55.258Z,100617.16
2018-08-11T02:50:23.745Z,100621.52
2018-08-11T02:52:52.198Z,100623.16
2018-08-11T02:55:20.607Z,100631.10
2018-08-11T02:57:49.009Z,100630.02
2018-08-11T03:00:17.462Z,100632.98
2018-08-11T03:02:45.893Z,100631.92
2018-08-11T03:05:14.379Z,100636.55
2018-08-11T03:07:42.804Z,100633.85
2018-08-11T03:10:12.245Z,100632.20
2018-08-11T03:12:41.432Z,100642.59
2018-08-11T03:15:11.585Z,100637.11
2018-08-11T03:17:40.891Z,100642.05
2018-08-11T03:20:12.160Z,100641.77
2018-08-11T03:22:40.601Z,100637.95
2018-08-11T03:25:10.377Z,100646.69
2018-08-11T03:27:39.033Z,100641.22
2018-08-11T03:30:07.989Z,100639.31
2018-08-11T03:32:36.640Z,100644.50
2018-08-11T03:35:05.940Z,100649.69
2018-08-11T03:37:34.506Z,100654.34
2018-08-11T03:40:02.944Z,100655.42
2018-08-11T03:42:31.355Z,100653.27
2018-08-11T03:44:59.865Z,100651.58
2018-08-11T03:47:28.286Z,100657.58
2018-08-11T03:49:56.784Z,100659.46
2018-08-11T03:52:25.253Z,100656.16
2018-08-11T03:54:53.685Z,100663.25
2018-08-11T03:57:22.159Z,100669.81
2018-08-11T03:59:50.589Z,100668.17
2018-08-11T04:02:19.083Z,100665.98
2018-08-11T04:04:47.501Z,100668.10
2018-08-11T04:07:15.960Z,100672.67
2018-08-11T04:09:44.401Z,100679.80
2018-08-11T04:12:12.877Z,100685.02
2018-08-11T04:14:41.266Z,100683.09
2018-08-11T04:17:09.701Z,100689.08
2018-08-11T04:19:38.178Z,100683.59
2018-08-11T04:22:06.832Z,100693.41
2018-08-11T04:24:35.261Z,100698.33
2018-08-11T04:27:03.749Z,100702.55
2018-08-11T04:29:32.182Z,100701.78
2018-08-11T04:32:00.666Z,100700.45
2018-08-11T04:34:29.158Z,100700.14
2018-08-11T04:36:59.737Z,100702.90
2018-08-11T04:39:28.192Z,100694.41
2018-08-11T04:41:56.675Z,100698.20
2018-08-11T04:44:25.207Z,100704.23
2018-08-11T04:46:53.789Z,100712.13
2018-08-11T04:49:22.232Z,100715.70
2018-08-11T04:51:50.823Z,100717.64
2018-08-11T04:54:19.223Z,100720.12
2018-08-11T04:56:47.669Z,100719.06
2018-08-11T04:59:16.589Z,100713.34
2018-08-11T05:01:44.989Z,100708.97
2018-08-11T05:04:13.416Z,100714.17
2018-08-11T05:06:41.874Z,100712.51
2018-08-11T05:09:11.099Z,100715.58
2018-08-11T05:11:39.576Z,100716.70
2018-08-11T05:14:08.134Z,100721.33
2018-08-11T05:16:36.671Z,100722.42
2018-08-11T05:19:05.116Z,100733.10
2018-08-11T05:21:33.668Z,100732.81
2018-08-11T05:24:02.145Z,100734.45
2018-08-11T05:26:30.656Z,100731.73
2018-08-11T05:28:59.082Z,100733.64
2018-08-11T05:31:27.574Z,100740.22
2018-08-11T05:33:55.977Z,100740.77
2018-08-11T05:36:24.466Z,100744.05
2018-08-11T05:38:52.880Z,100747.05
2018-08-11T05:41:21.361Z,100753.06
2018-08-11T05:43:49.767Z,100754.70
2018-08-11T05:46:18.269Z,100766.73
2018-08-11T05:48:46.678Z,100757.70
2018-08-11T05:51:15.145Z,100755.78
2018-08-11T05:53:43.593Z,100754.67
2018-08-11T05:56:12.074Z,100762.31
2018-08-11T05:58:40.556Z,100763.70
2018-08-11T06:01:09.058Z,100770.55
2018-08-11T06:03:37.486Z,100764.24
2018-08-11T06:06:05.934Z,100766.98
2018-08-11T06:08:34.419Z,100768.05
2018-08-11T06:11:02.905Z,100757.64
2018-08-11T06:13:31.359Z,100761.48
2018-08-11T06:15:59.825Z,100766.94
2018-08-11T06:18:28.338Z,100771.86
2018-08-11T06:20:56.889Z,100769.14
2018-08-11T06:23:25.539Z,100757.38
2018-08-11T06:25:54.056Z,100778.46
2018-08-11T06:28:22.704Z,100769.42
2018-08-11T06:30:51.129Z,100777.62
2018-08-11T06:33:19.611Z,100782.52
2018-08-11T06:35:48.063Z,100783.88
2018-08-11T06:38:16.542Z,100785.52
2018-08-11T06:40:45.072Z,100797.82
2018-08-11T06:43:13.451Z,100803.52
2018-08-11T06:45:41.910Z,100793.69
2018-08-11T06:48:10.349Z,100802.92
2018-08-11T06:50:38.769Z,100809.15
2018-08-11T06:53:07.239Z,100815.94
2018-08-11T06:55:35.759Z,100820.02
2018-08-11T06:58:04.298Z,100821.27
2018-08-11T07:00:32.704Z,100824.66
2018-08-11T07:03:01.159Z,100813.55
2018-08-11T07:05:29.605Z,100816.91
2018-08-11T07:07:58.044Z,100819.73
2018-08-11T07:10:26.494Z,100816.44
2018-08-11T07:12:54.946Z,100814.72
2018-08-11T07:15:23.449Z,100825.72
2018-08-11T07:17:54.630Z,100823.86
2018-08-11T07:20:23.067Z,100821.29
2018-08-11T07:22:51.527Z,100832.55
2018-08-11T07:25:19.931Z,100831.56
2018-08-11T07:27:48.385Z,100834.23
2018-08-11T07:30:16.867Z,100837.06
2018-08-11T07:32:45.294Z,100842.61
2018-08-11T07:35:13.749Z,100846.00
2018-08-11T07:37:42.400Z,100843.27
2018-08-11T07:40:10.888Z,100844.28
2018-08-11T07:42:39.381Z,100843.97
2018-08-11T07:45:07.837Z,100845.88
2018-08-11T07:47:36.318Z,100842.93
2018-08-11T07:50:05.388Z,100847.70
2018-08-11T07:52:34.313Z,100856.80
2018-08-11T07:55:02.744Z,100851.37
2018-08-11T07:57:31.233Z,100858.44
2018-08-11T07:59:59.698Z,100862.52
2018-08-11T08:02:28.174Z,100859.77
2018-08-11T08:04:56.602Z,100861.30
2018-08-11T08:07:25.018Z,100862.73
2018-08-11T08:09:53.490Z,100861.51
2018-08-11T08:12:22.765Z,100871.08
2018-08-11T08:14:53.689Z,100865.19
2018-08-11T08:17:23.152Z,100857.89
2018-08-11T08:19:52.665Z,100861.55
2018-08-11T08:22:22.706Z,100867.56
2018-08-11T08:24:51.357Z,100867.30
2018-08-11T08:27:20.326Z,100870.00
2018-08-11T08:29:48.999Z,100866.58
2018-08-11T08:32:17.727Z,100870.23
2018-08-11T08:34:47.220Z,100860.75
2018-08-11T08:37:16.725Z,100862.31
2018-08-11T08:39:45.390Z,100852.76
2018-08-11T08:42:14.827Z,100857.27
2018-08-11T08:44:44.449Z,100856.83
2018-08-11T08:47:13.541Z,100860.63
2018-08-11T08:49:43.572Z,100862.77
2018-08-11T08:52:13.290Z,100861.03
2018-08-11T08:54:42.749Z,100861.13
2018-08-11T08:57:12.877Z,100863.63
2018-08-11T08:59:42.215Z,100858.15
2018-08-11T09:02:15.829Z,100855.33
2018-08-11T09:04:44.868Z,100858.66
2018-08-11T09:07:14.389Z,100850.91
2018-08-11T09:09:43.326Z,100855.20
2018-08-11T09:12:12.568Z,100852.30
2018-08-11T09:14:41.669Z,100850.25
2018-08-11T09:17:10.565Z,100841.05
2018-08-11T09:19:40.749Z,100847.78
2018-08-11T09:22:09.923Z,100839.00
2018-08-11T09:24:39.356Z,100837.30
2018-08-11T09:27:08.548Z,100840.62
2018-08-11T09:29:38.462Z,100850.47
2018-08-11T09:32:07.832Z,100848.94
2018-08-11T09:34:39.114Z,100843.22
2018-08-11T09:37:07.809Z,100850.52
2018-08-11T09:39:38.048Z,100850.22
2018-08-11T09:42:07.133Z,100850.56
2018-08-11T09:44:35.854Z,100866.25
2018-08-11T09:47:05.001Z,100855.59
2018-08-11T09:49:34.730Z,100857.14
2018-08-11T09:52:04.438Z,100838.98
2018-08-11T09:54:33.875Z,100861.41
2018-08-11T09:57:05.386Z,100858.72
2018-08-11T09:59:35.542Z,100847.51
2018-08-11T10:02:09.542Z,100856.66
2018-08-11T10:04:39.155Z,100852.41
2018-08-11T10:07:09.023Z,100848.67
2018-08-11T10:09:39.355Z,100838.57
2018-08-11T10:12:08.942Z,100840.63
2018-08-11T10:14:38.021Z,100833.85
2018-08-11T10:17:07.463Z,100823.14
2018-08-11T10:19:38.173Z,100828.00
2018-08-11T10:22:07.225Z,100823.42
2018-08-11T10:24:36.145Z,100827.72
2018-08-11T10:27:05.517Z,100833.14
2018-08-11T10:29:35.082Z,100831.55
2018-08-11T10:32:03.962Z,100831.16
2018-08-11T10:34:32.515Z,100833.96
2018-08-11T10:37:01.074Z,100835.69
2018-08-11T10:39:31.205Z,100831.38
2018-08-11T10:42:00.385Z,100817.08
2018-08-11T10:44:29.652Z,100824.75
2018-08-11T10:46:59.008Z,100833.89
2018-08-11T10:49:28.882Z,100818.45
2018-08-11T10:51:58.741Z,100825.53
2018-08-11T10:54:28.560Z,100828.14
2018-08-11T10:56:57.693Z,100826.09
2018-08-11T10:59:30.813Z,100830.95
2018-08-11T11:02:00.241Z,100828.98
2018-08-11T11:04:29.597Z,100831.75
2018-08-11T11:06:59.645Z,100819.33
2018-08-11T11:09:29.125Z,100833.61
2018-08-11T11:11:57.710Z,100814.34
2018-08-11T11:14:28.099Z,100817.85
2018-08-11T11:16:58.266Z,100823.41
2018-08-11T11:19:27.576Z,100817.77
2018-08-11T11:21:56.949Z,100812.59
2018-08-11T11:24:26.877Z,100812.75
2018-08-11T11:27:01.809Z,100812.27
2018-08-11T11:29:31.977Z,100814.07
2018-08-11T11:32:01.890Z,100817.55
2018-08-11T11:34:31.836Z,100822.03
2018-08-11T11:37:01.495Z,100828.38
2018-08-11T11:39:30.712Z,100823.42
2018-08-11T11:41:59.680Z,100809.53
2018-08-11T11:44:30.090Z,100813.17
2018-08-11T11:46:58.854Z,100819.20
2018-08-11T11:49:27.601Z,100814.05
2018-08-11T11:51:56.590Z,100822.52
2018-08-11T11:54:26.289Z,100836.78
2018-08-11T11:56:55.540Z,100828.39
2018-08-11T11:59:25.660Z,100816.45
2018-08-11T12:01:54.900Z,100832.09
2018-08-11T12:04:24.487Z,100835.23
2018-08-11T12:06:53.840Z,100828.11
2018-08-11T12:09:22.686Z,100822.08
2018-08-11T12:11:51.888Z,100812.16
2018-08-11T12:14:21.471Z,100821.70
2018-08-11T12:16:50.995Z,100814.77
2018-08-11T12:19:20.328Z,100812.84
2018-08-11T12:21:49.125Z,100805.39
2018-08-11T12:24:17.917Z,100800.09
2018-08-11T12:26:47.200Z,100800.24
2018-08-11T12:29:16.234Z,100808.47
2018-08-11T12:31:47.232Z,100816.20
2018-08-11T12:34:16.269Z,100810.96
2018-08-11T12:36:46.566Z,100809.10
2018-08-11T12:39:17.192Z,100804.86
2018-08-11T12:41:46.153Z,100809.49
2018-08-11T12:44:15.865Z,100807.11
2018-08-11T12:46:44.916Z,100801.62
2018-08-11T12:49:20.703Z,100808.49
2018-08-11T12:51:50.127Z,100811.93
2018-08-11T12:54:20.089Z,100797.81
2018-08-11T12:56:49.964Z,100788.00
2018-08-11T12:59:19.032Z,100790.35
2018-08-11T13:01:48.853Z,100788.91
2018-08-11T13:04:17.411Z,100783.34
2018-08-11T13:06:46.932Z,100798.61
2018-08-11T13:09:20.409Z,100795.48
2018-08-11T13:11:49.926Z,100780.30
2018-08-11T13:14:18.821Z,100789.03
2018-08-11T13:16:47.674Z,100776.73
2018-08-11T13:19:17.792Z,100771.94
2018-08-11T13:21:48.189Z,100772.29
2018-08-11T13:24:18.419Z,100778.09
2018-08-11T13:26:47.428Z,100776.63
2018-08-11T13:29:17.024Z,100775.48
2018-08-11T13:31:47.897Z,100782.58
2018-08-11T13:34:24.413Z,100776.33
2018-08-11T13:36:54.411Z,100779.84
2018-08-11T13:39:23.894Z,100774.55
2018-08-11T13:41:52.780Z,100773.88
2018-08-11T13:44:28.106Z,100769.70
2018-08-11T13:46:59.166Z,100761.27
2018-08-11T13:49:28.869Z,100750.89
2018-08-11T13:51:59.370Z,100760.61
2018-08-11T13:54:29.582Z,100745.77
2018-08-11T13:56:58.385Z,100757.22
2018-08-11T13:59:27.181Z,100748.50
2018-08-11T14:01:56.094Z,100742.31
2018-08-11T14:04:29.199Z,100738.25
2018-08-11T14:06:58.892Z,100734.63
2018-08-11T14:09:31.142Z,100741.81
2018-08-11T14:12:00.182Z,100739.28
2018-08-11T14:14:29.408Z,100732.53
2018-08-11T14:17:00.161Z,100733.94
2018-08-11T14:19:30.053Z,100727.21
2018-08-11T14:22:00.071Z,100724.06
2018-08-11T14:24:30.249Z,100743.19
2018-08-11T14:27:02.808Z,100741.66
2018-08-11T14:29:31.834Z,100742.17
2018-08-11T14:32:01.381Z,100744.27
2018-08-11T14:34:30.092Z,100742.37
2018-08-11T14:37:00.005Z,100741.87
2018-08-11T14:39:30.586Z,100730.41
2018-08-11T14:42:08.423Z,100735.89
2018-08-11T14:44:37.712Z,100729.80
2018-08-11T14:47:07.737Z,100726.36
2018-08-11T14:49:36.809Z,100715.52
2018-08-11T14:52:07.829Z,100717.89
2018-08-11T14:54:39.263Z,100723.78
2018-08-11T14:57:09.495Z,100719.59
2018-08-11T14:59:46.328Z,100720.81
2018-08-11T15:02:15.917Z,100731.34
2018-08-11T15:04:45.257Z,100722.17
2018-08-11T15:07:17.181Z,100722.27
2018-08-11T15:09:47.313Z,100718.48
2018-08-11T15:12:17.209Z,100720.66
2018-08-11T15:14:47.826Z,100718.37
2018-08-11T15:17:16.658Z,100706.89
2018-08-11T15:19:46.357Z,100721.07
2018-08-11T15:22:17.101Z,100710.70
2018-08-11T15:24:46.711Z,100716.20
2018-08-11T15:27:17.222Z,100717.94
2018-08-11T15:29:45.913Z,100712.65
2018-08-11T15:32:15.293Z,100710.29
2018-08-11T15:34:45.823Z,100703.89
2018-08-11T15:37:16.018Z,100707.17
2018-08-11T15:39:47.270Z,100706.63
2018-08-11T15:42:18.513Z,100705.53
2018-08-11T15:44:48.129Z,100697.84
2018-08-11T15:47:18.481Z,100705.65
2018-08-11T15:49:50.954Z,100695.98
2018-08-11T15:52:19.917Z,100695.59
2018-08-11T15:54:51.686Z,100700.03
2018-08-11T15:57:21.909Z,100706.19
2018-08-11T15:59:51.523Z,100709.31
2018-08-11T16:02:21.554Z,100700.30
2018-08-11T16:04:50.842Z,100694.41
2018-08-11T16:07:20.809Z,100695.88
2018-08-11T16:09:49.696Z,100690.34
2018-08-11T16:12:18.676Z,100693.67
2018-08-11T16:14:48.138Z,100690.64
2018-08-11T16:17:17.957Z,100698.50
2018-08-11T16:19:47.646Z,100699.18
2018-08-11T16:22:18.208Z,100700.75
2018-08-11T16:24:48.090Z,100701.05
2018-08-11T16:27:18.806Z,100700.67
2018-08-11T16:29:48.270Z,100699.97
2018-08-11T16:32:21.289Z,100702.52
2018-08-11T16:34:49.933Z,100705.81
2018-08-11T16:37:18.841Z,100702.71
2018-08-11T16:39:47.943Z,100699.62
2018-08-11T16:42:18.533Z,100698.89
2018-08-11T16:44:47.866Z,100698.92
2018-08-11T16:47:16.488Z,100697.45
2018-08-11T16:49:46.743Z,100696.16
2018-08-11T16:52:15.789Z,100691.84
2018-08-11T16:54:45.206Z,100695.96
2018-08-11T16:57:14.021Z,100697.39
2018-08-11T16:59:44.979Z,100700.27
2018-08-11T17:02:14.277Z,100693.17
2018-08-11T17:04:43.785Z,100690.91
2018-08-11T17:07:15.968Z,100689.61
2018-08-11T17:09:46.632Z,100686.69
2018-08-11T17:12:16.430Z,100685.30
2018-08-11T17:14:45.736Z,100684.39
2018-08-11T17:17:15.983Z,100692.87
2018-08-11T17:19:45.386Z,100692.74
2018-08-11T17:22:14.522Z,100689.91
2018-08-11T17:24:44.331Z,100690.22
2018-08-11T17:27:14.281Z,100694.37
2018-08-11T17:29:49.324Z,100687.60
2018-08-11T17:32:19.605Z,100678.54
2018-08-11T17:34:48.932Z,100679.40
2018-08-11T17:37:17.697Z,100680.70
2018-08-11T17:39:48.110Z,100684.03
2018-08-11T17:42:16.750Z,100686.86
2018-08-11T17:44:45.760Z,100672.65
2018-08-11T17:47:14.922Z,100678.49
2018-08-11T17:49:44.472Z,100677.30
2018-08-11T17:52:17.497Z,100685.89
2018-08-11T17:54:47.170Z,100686.85
2018-08-11T17:57:16.033Z,100681.27
2018-08-11T17:59:44.800Z,100679.71
2018-08-11T18:02:14.158Z,100682.45
2018-08-11T18:04:44.077Z,100684.28
2018-08-11T18:07:13.868Z,100687.94
2018-08-11T18:09:44.045Z,100682.88
2018-08-11T18:12:20.049Z,100680.94
2018-08-11T18:14:49.825Z,100676.17
2018-08-11T18:17:20.076Z,100674.20
2018-08-11T18:19:49.763Z,100684.19
2018-08-11T18:22:18.916Z,100680.29
2018-08-11T18:24:48.019Z,100671.47
2018-08-11T18:27:16.818Z,100673.16
2018-08-11T18:29:47.283Z,100674.48
2018-08-11T18:32:15.926Z,100669.47
2018-08-11T18:34:46.739Z,100672.03
2018-08-11T18:37:16.004Z,100672.53
2018-08-11T18:39:44.685Z,100681.20
2018-08-11T18:42:14.501Z,100678.11
2018-08-11T18:44:43.506Z,100678.66
2018-08-11T18:47:12.693Z,100674.49
2018-08-11T18:49:43.740Z,100678.73
2018-08-11T18:52:13.762Z,100680.36
2018-08-11T18:54:43.102Z,100674.83
2018-08-11T18:57:14.567Z,100682.66
2018-08-11T18:59:44.667Z,100684.91
2018-08-11T19:02:14.286Z,100678.34
2018-08-11T19:04:43.638Z,100682.98
2018-08-11T19:07:13.269Z,100682.52
2018-08-11T19:09:42.458Z,100686.42
2018-08-11T19:12:12.243Z,100691.01
2018-08-11T19:14:40.783Z,100692.80
2018-08-11T19:17:10.983Z,100694.94
2018-08-11T19:19:40.304Z,100693.30
2018-08-11T19:22:10.200Z,100689.16
2018-08-11T19:24:40.014Z,100694.94
2018-08-11T19:27:09.921Z,100692.16
2018-08-11T19:29:40.280Z,100696.77
2018-08-11T19:32:11.090Z,100699.38
2018-08-11T19:34:40.901Z,100699.48
2018-08-11T19:37:13.213Z,100693.02
2018-08-11T19:39:42.436Z,100690.94
2018-08-11T19:42:16.008Z,100693.30
2018-08-11T19:44:46.241Z,100695.88
2018-08-11T19:47:16.045Z,100699.62
2018-08-11T19:49:46.401Z,100696.98
2018-08-11T19:52:16.461Z,100694.67
2018-08-11T19:54:49.757Z,100695.59
2018-08-11T19:57:18.878Z,100700.33
2018-08-11T19:59:52.263Z,100692.74
2018-08-11T20:02:23.254Z,100696.42
2018-08-11T20:04:52.061Z,100695.67
2018-08-11T20:07:21.140Z,100698.75
2018-08-11T20:09:51.426Z,100696.62
2018-08-11T20:12:21.929Z,100692.60
2018-08-11T20:14:51.003Z,100692.66
2018-08-11T20:17:21.432Z,100695.40
2018-08-11T20:19:50.653Z,100688.36
2018-08-11T20:22:20.418Z,100688.41
2018-08-11T20:24:50.054Z,100692.58
2018-08-11T20:27:20.854Z,100687.96
2018-08-11T20:29:50.985Z,100698.45
2018-08-11T20:32:19.749Z,100694.95
2018-08-11T20:34:48.817Z,100703.18
2018-08-11T20:37:18.355Z,100692.34
2018-08-11T20:39:47.873Z,100695.89
2018-08-11T20:42:17.497Z,100690.72
2018-08-11T20:44:47.188Z,100690.50
2018-08-11T20:47:18.327Z,100703.09
2018-08-11T20:49:47.501Z,100695.70
2018-08-11T20:52:16.230Z,100699.28
2018-08-11T20:54:45.927Z,100708.03
2018-08-11T20:57:14.409Z,100697.36
2018-08-11T20:59:42.891Z,100694.61
2018-08-11T21:02:11.714Z,100699.86
2018-08-11T21:04:43.425Z,100697.42
2018-08-11T21:07:17.915Z,100693.37
2018-08-11T21:09:48.301Z,100694.52
2018-08-11T21:12:18.284Z,100688.48
2018-08-11T21:14:47.897Z,100687.65
2018-08-11T21:17:18.377Z,100685.16
2018-08-11T21:19:48.425Z,100683.30
2018-08-11T21:22:17.745Z,100689.62
2018-08-11T21:24:47.246Z,100687.86
2018-08-11T21:27:16.770Z,100681.54
2018-08-11T21:29:46.393Z,100677.41
2018-08-11T21:32:16.632Z,100680.44
2018-08-11T21:34:46.907Z,100678.85
2018-08-11T21:37:15.885Z,100678.56
2018-08-11T21:39:44.929Z,100677.47
2018-08-11T21:42:15.801Z,100673.12
2018-08-11T21:44:48.695Z,100672.05
2018-08-11T21:47:19.031Z,100670.42
2018-08-11T21:49:48.571Z,100670.16
2018-08-11T21:52:23.182Z,100667.95
2018-08-11T21:54:53.114Z,100669.33
2018-08-11T21:57:22.050Z,100675.57
2018-08-11T21:59:53.181Z,100670.36
2018-08-11T22:02:28.929Z,100676.61
2018-08-11T22:05:02.223Z,100664.83
2018-08-11T22:07:32.750Z,100664.81
2018-08-11T22:10:04.362Z,100662.06
2018-08-11T22:12:33.616Z,100658.78
2018-08-11T22:15:06.666Z,100658.79
2018-08-11T22:17:37.307Z,100659.33
2018-08-11T22:20:06.560Z,100662.02
2018-08-11T22:22:36.599Z,100657.55
2018-08-11T22:25:09.370Z,100658.36
2018-08-11T22:27:38.902Z,100656.30
2018-08-11T22:30:08.713Z,100657.56
2018-08-11T22:32:38.438Z,100655.53
2018-08-11T22:35:09.590Z,100656.61
2018-08-11T22:37:39.021Z,100655.82
2018-08-11T22:40:15.113Z,100655.92
2018-08-11T22:42:44.358Z,100654.84
2018-08-11T22:45:13.579Z,100655.61
2018-08-11T22:47:43.536Z,100648.21
2018-08-11T22:50:14.961Z,100646.62
2018-08-11T22:52:44.165Z,100643.65
2018-08-11T22:55:12.705Z,100635.78
2018-08-11T22:57:41.775Z,100638.08
2018-08-11T23:00:18.139Z,100634.71
2018-08-11T23:02:48.050Z,100632.26
2018-08-11T23:05:18.042Z,100631.09
2018-08-11T23:07:48.438Z,100625.95
2018-08-11T23:10:18.553Z,100633.41
2018-08-11T23:12:48.326Z,100630.19
2018-08-11T23:15:20.129Z,100627.27
2018-08-11T23:17:51.126Z,100618.02
2018-08-11T23:20:19.789Z,100616.95
2018-08-11T23:22:50.156Z,100616.41
2018-08-11T23:25:26.816Z,100615.32
2018-08-11T23:27:55.855Z,100615.03
2018-08-11T23:30:25.378Z,100609.22
2018-08-11T23:32:54.228Z,100605.67
2018-08-11T23:35:23.725Z,100606.64
2018-08-11T23:37:52.983Z,100614.55
2018-08-11T23:40:22.679Z,100608.17
2018-08-11T23:42:52.322Z,100603.30
2018-08-11T23:45:21.897Z,100607.41
2018-08-11T23:47:52.273Z,100611.53
2018-08-11T23:50:21.750Z,100606.42
2018-08-11T23:52:50.471Z,100598.81
2018-08-11T23:55:19.393Z,100609.11
2018-08-11T23:57:54.430Z,100598.11
